createdAt,value
2023-03-31T00:04:05.534Z,68.60
2023-03-31T00:09:22.075Z,68.18
2023-03-31T00:14:23.732Z,68.10
2023-03-31T00:19:25.404Z,68.36
2023-03-31T00:24:27.067Z,67.95
2023-03-31T00:29:29.399Z,67.68
2023-03-31T00:34:30.981Z,67.18
2023-03-31T00:39:33.931Z,67.32
2023-03-31T00:44:38.456Z,67.59
2023-03-31T00:49:49.494Z,67.82
2023-03-31T00:54:56.669Z,66.44
2023-03-31T01:00:10.018Z,67.00
2023-03-31T01:05:11.632Z,67.69
2023-03-31T01:10:16.708Z,68.52
2023-03-31T01:15:20.180Z,68.83
2023-03-31T01:21:03.929Z,69.29
2023-03-31T01:26:08.473Z,69.45
2023-03-31T01:31:29.080Z,68.72
2023-03-31T01:36:49.613Z,68.73
2023-03-31T01:42:10.920Z,68.00
2023-03-31T01:47:40.860Z,68.30
2023-03-31T01:52:49.861Z,69.42
2023-03-31T01:57:57.985Z,68.13
2023-03-31T02:03:09.890Z,68.67
2023-03-31T02:08:16.428Z,68.94
2023-03-31T02:13:21.435Z,69.25
2023-03-31T02:18:30.697Z,69.28
2023-03-31T02:23:33.142Z,70.16
2023-03-31T02:28:35.601Z,70.33
2023-03-31T02:33:37.375Z,71.04
2023-03-31T02:38:45.082Z,70.98
2023-03-31T02:43:46.732Z,71.48
2023-03-31T02:48:52.055Z,71.64
2023-03-31T02:54:04.472Z,72.19
2023-03-31T02:59:09.009Z,72.81
2023-03-31T03:04:34.211Z,72.85
2023-03-31T03:10:00.012Z,72.90
2023-03-31T03:15:11.180Z,72.28
2023-03-31T03:20:14.112Z,72.45
2023-03-31T03:25:20.843Z,72.89
2023-03-31T03:30:22.659Z,72.93
2023-03-31T03:35:24.787Z,73.43
2023-03-31T03:40:26.403Z,73.71
2023-03-31T03:45:28.064Z,74.39
2023-03-31T03:50:29.668Z,74.70
2023-03-31T03:55:31.318Z,74.53
2023-03-31T04:00:33.448Z,74.22
2023-03-31T04:05:35.027Z,74.81
2023-03-31T04:10:36.696Z,74.67
2023-03-31T04:15:38.452Z,74.84
2023-03-31T04:20:40.029Z,74.10
2023-03-31T04:25:46.384Z,74.84
2023-03-31T04:30:49.154Z,74.98
2023-03-31T04:35:52.654Z,74.43
2023-03-31T04:40:54.437Z,74.99
2023-03-31T04:45:56.408Z,74.85
2023-03-31T04:50:58.027Z,74.75
2023-03-31T04:55:59.774Z,75.29
2023-03-31T05:01:01.485Z,74.76
2023-03-31T05:06:03.224Z,74.24
2023-03-31T05:11:04.975Z,74.76
2023-03-31T05:16:12.472Z,75.25
2023-03-31T05:21:21.657Z,75.19
2023-03-31T05:26:25.429Z,75.27
2023-03-31T05:31:27.373Z,76.19
2023-03-31T05:36:29.152Z,76.72
2023-03-31T05:41:30.815Z,76.20
2023-03-31T05:46:32.475Z,76.91
2023-03-31T05:51:34.941Z,76.58
2023-03-31T05:56:36.540Z,76.99
2023-03-31T06:01:38.265Z,76.78
2023-03-31T06:06:43.006Z,76.74
2023-03-31T06:11:44.766Z,76.58
2023-03-31T06:16:48.258Z,76.68
2023-03-31T06:21:49.843Z,76.49
2023-03-31T06:26:53.499Z,76.68
2023-03-31T06:31:55.548Z,77.17
2023-03-31T06:36:57.930Z,76.96
2023-03-31T06:41:59.489Z,77.34
2023-03-31T06:47:01.101Z,76.73
2023-03-31T06:52:04.060Z,76.33
2023-03-31T06:57:05.958Z,76.71
2023-03-31T07:02:07.595Z,76.88
2023-03-31T07:07:09.626Z,76.98
2023-03-31T07:12:11.526Z,77.05
2023-03-31T07:17:13.141Z,76.60
2023-03-31T07:22:15.924Z,77.31
2023-03-31T07:27:17.557Z,77.13
2023-03-31T07:32:19.268Z,76.82
2023-03-31T07:37:21.052Z,77.23
2023-03-31T07:42:22.679Z,76.66
2023-03-31T07:47:24.608Z,76.97
2023-03-31T07:52:26.246Z,76.86
2023-03-31T07:57:27.910Z,76.33
2023-03-31T08:02:29.619Z,73.47
2023-03-31T08:07:35.115Z,68.97
2023-03-31T08:12:36.953Z,63.76
2023-03-31T08:17:39.196Z,64.15
2023-03-31T08:22:41.316Z,63.35
2023-03-31T08:27:42.917Z,62.56
2023-03-31T08:32:44.830Z,62.19
2023-03-31T08:37:47.730Z,62.90
2023-03-31T08:42:51.749Z,61.98
2023-03-31T08:48:04.629Z,62.42
2023-03-31T08:53:17.845Z,62.67
2023-03-31T08:58:29.526Z,61.66
2023-03-31T09:03:47.363Z,61.35
2023-03-31T09:08:49.144Z,60.47
2023-03-31T09:13:53.437Z,61.54
2023-03-31T09:19:00.561Z,62.07
2023-03-31T09:24:11.829Z,60.81
2023-03-31T09:29:40.855Z,60.85
2023-03-31T09:34:44.679Z,59.64
2023-03-31T09:39:46.468Z,60.11
2023-03-31T09:44:52.320Z,59.25
2023-03-31T09:49:54.776Z,60.57
2023-03-31T09:55:00.666Z,60.58
2023-03-31T10:00:17.840Z,57.72
2023-03-31T10:05:27.479Z,58.34
2023-03-31T10:10:33.386Z,58.25
2023-03-31T10:15:39.698Z,58.68
2023-03-31T10:20:51.568Z,59.40
2023-03-31T10:25:54.256Z,59.14
2023-03-31T10:31:01.779Z,57.86
2023-03-31T10:36:13.734Z,57.80
2023-03-31T10:41:28.196Z,57.05
2023-03-31T10:46:49.654Z,58.55
2023-03-31T10:51:59.458Z,59.09
2023-03-31T10:57:04.633Z,59.70
2023-03-31T11:02:27.412Z,59.57
2023-03-31T11:07:50.717Z,60.07
2023-03-31T11:13:20.864Z,58.72
2023-03-31T11:18:57.033Z,58.84
2023-03-31T11:24:23.494Z,58.08
2023-03-31T11:29:40.366Z,57.77
2023-03-31T11:34:53.247Z,57.42
2023-03-31T11:39:57.515Z,56.96
2023-03-31T11:45:06.470Z,56.69
2023-03-31T11:50:14.827Z,56.61
2023-03-31T11:55:21.749Z,55.98
2023-03-31T12:00:28.659Z,55.31
2023-03-31T12:05:33.975Z,54.54
2023-03-31T12:10:37.930Z,54.70
2023-03-31T12:15:42.813Z,53.11
2023-03-31T12:20:56.577Z,53.47
2023-03-31T12:26:20.402Z,52.89
2023-03-31T12:31:26.322Z,52.35
2023-03-31T12:36:52.955Z,51.66
2023-03-31T12:42:13.754Z,51.94
2023-03-31T12:47:34.977Z,52.83
2023-03-31T12:52:44.605Z,52.25
2023-03-31T12:57:46.254Z,51.69
2023-03-31T13:02:48.859Z,51.64
2023-03-31T13:07:50.634Z,51.97
2023-03-31T13:13:16.369Z,52.48
2023-03-31T13:18:21.135Z,53.09
2023-03-31T13:23:28.761Z,53.74
2023-03-31T13:28:43.912Z,53.27
2023-03-31T13:33:52.051Z,54.77
2023-03-31T13:39:14.736Z,55.86
2023-03-31T13:44:51.145Z,55.54
2023-03-31T13:50:16.992Z,55.89
2023-03-31T13:55:39.913Z,55.80
2023-03-31T14:01:17.167Z,55.40
2023-03-31T14:06:33.796Z,56.48
2023-03-31T14:11:35.424Z,55.21
2023-03-31T14:16:40.051Z,54.84
2023-03-31T14:21:53.332Z,55.31
2023-03-31T14:27:21.216Z,55.94
2023-03-31T14:33:04.112Z,55.59
2023-03-31T14:38:11.921Z,55.79
2023-03-31T14:43:22.343Z,54.71
2023-03-31T14:48:24.202Z,54.16
2023-03-31T14:53:27.056Z,54.61
2023-03-31T14:58:35.082Z,55.11
2023-03-31T15:03:41.741Z,53.41
2023-03-31T15:08:43.394Z,53.53
2023-03-31T15:14:01.072Z,51.29
2023-03-31T15:19:15.183Z,52.23
2023-03-31T15:24:17.461Z,53.19
2023-03-31T15:29:29.748Z,52.07
2023-03-31T15:34:33.838Z,50.49
2023-03-31T15:39:37.621Z,51.25
2023-03-31T15:44:45.043Z,51.93
2023-03-31T15:50:16.271Z,52.26
2023-03-31T15:55:25.411Z,52.60
2023-03-31T16:00:52.449Z,52.91
2023-03-31T16:05:58.316Z,52.73
2023-03-31T16:11:10.081Z,53.10
2023-03-31T16:16:15.583Z,53.67
2023-03-31T16:21:30.951Z,53.42
2023-03-31T16:26:33.668Z,53.52
2023-03-31T16:31:41.462Z,53.61
2023-03-31T16:36:43.388Z,54.14
2023-03-31T16:41:45.131Z,53.90
2023-03-31T16:46:47.319Z,54.33
2023-03-31T16:51:49.009Z,53.73
2023-03-31T16:56:51.382Z,54.20
2023-03-31T17:01:53.559Z,54.07
2023-03-31T17:06:55.416Z,54.04
2023-03-31T17:11:57.317Z,53.95
2023-03-31T17:16:59.687Z,54.44
2023-03-31T17:22:03.634Z,54.74
2023-03-31T17:27:06.014Z,54.59
2023-03-31T17:32:07.999Z,55.78
2023-03-31T17:37:10.595Z,59.39
2023-03-31T17:42:14.224Z,62.37
2023-03-31T17:47:17.509Z,66.82
2023-03-31T17:52:19.200Z,72.42
2023-03-31T17:57:21.942Z,75.97
2023-03-31T18:02:25.121Z,76.83
2023-03-31T18:07:27.754Z,77.57
2023-03-31T18:12:29.803Z,77.34
2023-03-31T18:17:31.786Z,80.93
2023-03-31T18:22:34.260Z,80.44
2023-03-31T18:27:37.779Z,82.16
2023-03-31T18:32:40.198Z,85.96
2023-03-31T18:37:42.481Z,84.29
2023-03-31T18:42:44.542Z,84.90
2023-03-31T18:47:47.692Z,82.86
2023-03-31T18:52:54.980Z,85.99
2023-03-31T18:57:58.777Z,86.59
2023-03-31T19:03:02.107Z,87.67
2023-03-31T19:08:04.728Z,85.03
2023-03-31T19:13:08.295Z,84.51
2023-03-31T19:18:15.451Z,82.27
2023-03-31T19:23:18.036Z,81.88
2023-03-31T19:28:21.516Z,80.99
2023-03-31T19:33:25.475Z,81.31
2023-03-31T19:38:32.428Z,80.76
2023-03-31T19:43:36.660Z,81.08
2023-03-31T19:48:38.791Z,81.84
2023-03-31T19:53:41.708Z,81.44
2023-03-31T19:58:45.360Z,81.39
2023-03-31T20:03:54.397Z,81.96
2023-03-31T20:08:59.876Z,82.39
2023-03-31T20:14:03.256Z,81.36
2023-03-31T20:19:06.464Z,82.01
2023-03-31T20:24:11.468Z,81.46
2023-03-31T20:29:14.270Z,80.08
2023-03-31T20:34:18.552Z,82.11
2023-03-31T20:39:21.332Z,80.33
2023-03-31T20:44:23.718Z,81.84
2023-03-31T20:49:26.007Z,80.60
2023-03-31T20:54:28.159Z,81.02
2023-03-31T20:59:30.116Z,80.28
2023-03-31T21:04:31.867Z,81.24
2023-03-31T21:09:34.210Z,81.59
2023-03-31T21:14:36.712Z,80.44
2023-03-31T21:19:38.285Z,80.51
2023-03-31T21:24:39.895Z,77.91
2023-03-31T21:29:41.537Z,77.55
2023-03-31T21:34:43.101Z,77.70
2023-03-31T21:39:44.723Z,77.70
2023-03-31T21:44:46.325Z,79.15
2023-03-31T21:49:47.929Z,79.81
2023-03-31T21:54:49.493Z,78.58
2023-03-31T21:59:51.100Z,78.71
2023-03-31T22:04:52.752Z,78.91
2023-03-31T22:09:54.348Z,80.25
2023-03-31T22:14:56.995Z,79.13
2023-03-31T22:19:58.872Z,78.29
2023-03-31T22:25:00.622Z,76.52
2023-03-31T22:30:02.844Z,77.58
2023-03-31T22:35:04.828Z,77.32
2023-03-31T22:40:07.214Z,76.68
2023-03-31T22:45:09.273Z,76.45
2023-03-31T22:50:11.420Z,77.41
2023-03-31T22:55:13.119Z,75.86
2023-03-31T23:00:15.359Z,77.82
2023-03-31T23:05:17.015Z,78.33
2023-03-31T23:10:18.776Z,78.04
2023-03-31T23:15:20.854Z,79.49
2023-03-31T23:20:22.890Z,79.76
2023-03-31T23:25:24.475Z,79.95
2023-03-31T23:30:26.317Z,80.62
2023-03-31T23:35:28.073Z,83.10
2023-03-31T23:40:29.642Z,81.09
2023-03-31T23:45:31.774Z,81.26
2023-03-31T23:50:34.193Z,81.51
2023-03-31T23:55:36.601Z,81.67
